| time (UTC) | temp F | wind direction | speed knots | gust knots | rain 1hr in | rain 24hr in | rain mn in | humidity % | barometer mb |
| 20260505064517 | 59 | 207 | 0.0 | 1.7 | 0.00 | 0.00 | 0.00 | 84 | 1008.9 |
| 20260505063014 | 58 | 205 | 0.0 | 0.9 | 0.00 | 0.00 | 0.00 | 84 | 1009.2 |
| 20260505061519 | 58 | 211 | 0.0 | 0.0 | 0.00 | 0.00 | 0.00 | 84 | 1009.2 |
| 20260505060010 | 58 | 211 | 0.0 | 0.0 | 0.00 | 0.00 | 0.00 | 83 | 1009.5 |
| 20260505054509 | 58 | 211 | 0.0 | 0.0 | 0.00 | 0.00 | 0.00 | 84 | 1009.8 |
| 20260505053006 | 58 | 211 | 0.0 | 0.0 | 0.00 | 0.00 | 0.00 | 83 | 1009.8 |
| 20260505051505 | 59 | 211 | 0.0 | 0.0 | 0.00 | 0.00 | 0.00 | 83 | 1009.8 |
| 20260505041600 | 61 | 211 | 0.0 | 0.0 | 0.00 | 0.00 | 0.00 | 81 | 1010.0 |
| 20260505040100 | 61 | 211 | 0.0 | 0.0 | 0.00 | 0.00 | 0.00 | 79 | 1010.2 |
| 20260505034617 | 62 | 211 | 0.0 | 0.0 | 0.00 | 0.00 | 0.00 | 76 | 1010.1 |
| 20260505033105 | 62 | 211 | 0.0 | 0.0 | 0.00 | 0.00 | 0.00 | 75 | 1010.3 |
| 20260505031559 | 63 | 211 | 0.0 | 0.0 | 0.00 | 0.00 | 0.00 | 77 | 1010.3 |
| 20260505030058 | 64 | 211 | 0.0 | 0.0 | 0.00 | 0.00 | 0.00 | 74 | 1009.9 |
| 20260505024557 | 64 | 211 | 0.0 | 0.0 | 0.00 | 0.00 | 0.00 | 75 | 1009.9 |
| 20260505023101 | 65 | 211 | 0.0 | 0.0 | 0.00 | 0.00 | 0.00 | 72 | 1009.6 |
| 20260505021559 | 66 | 211 | 0.0 | 0.0 | 0.00 | 0.00 | 0.00 | 69 | 1009.4 |
| 20260505020100 | 67 | 211 | 0.0 | 0.0 | 0.00 | 0.00 | 0.00 | 69 | 1009.2 |
| 20260505014556 | 68 | 211 | 0.0 | 0.0 | 0.00 | 0.00 | 0.00 | 65 | 1009.2 |
| 20260505013058 | 69 | 211 | 0.0 | 0.0 | 0.00 | 0.00 | 0.00 | 65 | 1009.1 |
| 20260505011611 | 71 | 211 | 0.0 | 0.0 | 0.00 | 0.00 | 0.00 | 62 | 1008.9 |
| 20260505010055 | 72 | 230 | 0.0 | 0.9 | 0.00 | 0.00 | 0.00 | 61 | 1008.8 |
| 20260505004604 | 73 | 230 | 0.0 | 1.7 | 0.00 | 0.00 | 0.00 | 60 | 1008.8 |
| 20260505003056 | 74 | 219 | 0.0 | 1.7 | 0.00 | 0.00 | 0.00 | 59 | 1009.0 |
| 20260505001608 | 75 | 273 | 0.0 | 2.6 | 0.00 | 0.00 | 0.00 | 58 | 1009.0 |
| 20260505000106 | 75 | 172 | 0.0 | 3.5 | 0.00 | 0.00 | 0.00 | 57 | 1008.9 |
| 20260504234555 | 75 | 119 | 0.0 | 7.8 | 0.00 | 0.00 | 0.00 | 55 | 1009.0 |
| 20260504233103 | 76 | 186 | 1.7 | 9.6 | 0.00 | 0.00 | 0.00 | 54 | 1009.1 |
| 20260504231548 | 77 | 175 | 0.9 | 5.2 | 0.00 | 0.00 | 0.00 | 53 | 1009.4 |
| 20260504230047 | 78 | 167 | 1.7 | 6.1 | 0.00 | 0.00 | 0.00 | 51 | 1009.6 |
| 20260504224546 | 78 | 202 | 1.7 | 7.8 | 0.00 | 0.00 | 0.00 | 51 | 1009.8 |
| 20260504223046 | 78 | 184 | 2.6 | 9.6 | 0.00 | 0.00 | 0.00 | 51 | 1009.8 |
| 20260504221544 | 78 | 202 | 3.5 | 10.4 | 0.00 | 0.00 | 0.00 | 50 | 1010.0 |
| 20260504220043 | 78 | 241 | 2.6 | 8.7 | 0.00 | 0.00 | 0.00 | 51 | 1010.0 |
| 20260504214542 | 78 | 173 | 0.9 | 7.0 | 0.00 | 0.00 | 0.00 | 51 | 1010.1 |
| 20260504213041 | 79 | 15 | 3.5 | 9.6 | 0.00 | 0.00 | 0.00 | 49 | 1010.3 |
| 20260504211539 | 79 | 226 | 2.6 | 7.8 | 0.00 | 0.00 | 0.00 | 50 | 1010.5 |
| 20260504210039 | 79 | 223 | 2.6 | 8.7 | 0.00 | 0.00 | 0.00 | 49 | 1010.6 |
| 20260504204536 | 79 | 178 | 2.6 | 7.8 | 0.00 | 0.00 | 0.00 | 50 | 1011.0 |
| 20260504203034 | 79 | 222 | 3.5 | 10.4 | 0.00 | 0.00 | 0.00 | 50 | 1011.1 |
| 20260504201533 | 79 | 194 | 3.5 | 10.4 | 0.00 | 0.00 | 0.00 | 51 | 1011.5 |
| 20260504200032 | 79 | 228 | 4.3 | 8.7 | 0.00 | 0.00 | 0.00 | 49 | 1011.7 |
| 20260504194531 | 79 | 144 | 2.6 | 10.4 | 0.00 | 0.00 | 0.00 | 51 | 1012.0 |
| 20260504193025 | 78 | 192 | 3.5 | 9.6 | 0.00 | 0.00 | 0.00 | 49 | 1012.4 |
| 20260504191522 | 78 | 281 | 5.2 | 10.4 | 0.00 | 0.00 | 0.00 | 50 | 1012.5 |
| 20260504190025 | 78 | 119 | 4.3 | 10.4 | 0.00 | 0.00 | 0.00 | 51 | 1012.7 |
| 20260504184523 | 77 | 98 | 2.6 | 12.2 | 0.00 | 0.00 | 0.00 | 53 | 1012.9 |
| 20260504183017 | 77 | 138 | 3.5 | 8.7 | 0.00 | 0.00 | 0.00 | 51 | 1013.2 |
| 20260504181514 | 76 | 233 | 3.5 | 8.7 | 0.00 | 0.00 | 0.00 | 51 | 1013.2 |
| 20260504180012 | 76 | 205 | 4.3 | 10.4 | 0.00 | 0.00 | 0.00 | 51 | 1013.4 |
| 20260504174512 | 76 | 217 | 3.5 | 11.3 | 0.00 | 0.00 | 0.00 | 51 | 1013.6 |
| 20260504173007 | 76 | 254 | 3.5 | 10.4 | 0.00 | 0.00 | 0.00 | 51 | 1014.0 |
| 20260504171504 | 75 | 246 | 2.6 | 10.4 | 0.00 | 0.00 | 0.00 | 54 | 1014.0 |
| 20260504100103 | 55 | 153 | 0.0 | 0.0 | 0.00 | 0.00 | 0.00 | 83 | 1015.1 |
| 20260504090105 | 57 | 153 | 0.0 | 0.0 | 0.00 | 0.00 | 0.00 | 82 | 1015.1 |
| 20260504081547 | 59 | 153 | 0.0 | 0.9 | 0.00 | 0.00 | 0.00 | 80 | 1015.0 |